Terminal Aerodrome Forecast
Issued by NWS Dallas/Fort Worth, TX

Home | Current Version | Previous Version | Text Only | Print | Product List | Glossary On
Versions: 1 2 3 4 5 6 7 8 9 10 11 12 13 14 15 16 17 18 19 20 21 22 23 24 25 26 27 28 29
000
FTUS44 KFWD 021724
TAFACT
TAF
KACT 021724Z 0218/0318 20014G24KT P6SM SCT050 SCT250
     FM030200 18010KT P6SM FEW050 SCT150 BKN250
     FM030900 19010KT P6SM BKN015
     FM031500 19013KT P6SM BKN025
     FM031700 19012KT P6SM BKN040=

USA.gov is the U.S. government's official web portal to all federal, state and local government web resources and services.